createdAt,value
2022-12-20T00:00:59.816Z,57.15
2022-12-20T00:02:03.186Z,51.78
2022-12-20T00:03:05.257Z,56.65
2022-12-20T00:04:08.361Z,51.78
2022-12-20T00:05:11.121Z,58.50
2022-12-20T00:06:14.504Z,49.47
2022-12-20T00:07:16.476Z,48.80
2022-12-20T00:08:19.639Z,40.22
2022-12-20T00:09:21.629Z,45.65
2022-12-20T00:10:24.896Z,43.83
2022-12-20T00:11:29.317Z,43.45
2022-12-20T00:12:32.296Z,52.42
2022-12-20T00:13:34.716Z,43.30
2022-12-20T00:14:37.575Z,45.38
2022-12-20T00:15:39.561Z,52.78
2022-12-20T00:16:42.515Z,50.28
2022-12-20T00:17:44.545Z,48.28
2022-12-20T00:18:47.995Z,48.35
2022-12-20T00:19:50.061Z,45.03
2022-12-20T00:20:59.596Z,48.70
2022-12-20T00:22:02.635Z,40.85
2022-12-20T00:23:04.663Z,43.60
2022-12-20T00:24:08.578Z,38.03
2022-12-20T00:25:10.556Z,44.45
2022-12-20T00:26:15.481Z,38.83
2022-12-20T00:27:20.377Z,38.83
2022-12-20T00:28:23.515Z,38.75
2022-12-20T00:29:27.675Z,39.15
2022-12-20T00:30:30.896Z,46.40
2022-12-20T00:31:33.254Z,40.97
2022-12-20T00:32:36.354Z,37.42
2022-12-20T00:33:40.275Z,39.20
2022-12-20T00:34:44.975Z,34.70
2022-12-20T00:35:47.002Z,35.30
2022-12-20T00:36:50.035Z,38.33
2022-12-20T00:37:52.088Z,36.67
2022-12-20T00:38:56.567Z,36.63
2022-12-20T00:39:59.553Z,37.45
2022-12-20T00:41:03.062Z,36.80
2022-12-20T00:42:06.134Z,39.35
2022-12-20T00:43:09.617Z,36.40
2022-12-20T00:44:14.214Z,35.42
2022-12-20T00:45:16.213Z,37.05
2022-12-20T00:46:20.907Z,31.88
2022-12-20T00:47:23.074Z,38.00
2022-12-20T00:48:27.337Z,34.55
2022-12-20T00:49:29.360Z,42.38
2022-12-20T00:50:32.390Z,35.60
2022-12-20T00:51:34.413Z,46.25
2022-12-20T00:52:37.575Z,37.47
2022-12-20T00:53:39.740Z,42.40
2022-12-20T00:54:42.725Z,42.80
2022-12-20T00:55:46.420Z,38.92
2022-12-20T00:56:49.466Z,37.75
2022-12-20T00:57:51.493Z,33.67
2022-12-20T00:58:55.971Z,34.95
2022-12-20T00:59:59.395Z,36.00
2022-12-20T01:01:02.895Z,37.05
2022-12-20T01:02:05.799Z,35.70
2022-12-20T01:03:09.042Z,36.53
2022-12-20T01:04:11.058Z,36.28
2022-12-20T01:05:14.078Z,35.38
2022-12-20T01:06:17.373Z,31.60
2022-12-20T01:07:20.713Z,35.17
2022-12-20T01:08:23.897Z,32.58
2022-12-20T01:09:26.870Z,31.63
2022-12-20T01:10:28.853Z,30.30
2022-12-20T01:11:33.202Z,26.48
2022-12-20T01:12:35.252Z,31.55
2022-12-20T01:13:40.661Z,29.00
2022-12-20T01:14:44.409Z,30.52
2022-12-20T01:15:47.353Z,36.58
2022-12-20T01:16:49.335Z,29.63
2022-12-20T01:17:52.572Z,38.03
2022-12-20T01:18:54.992Z,36.67
2022-12-20T01:19:58.089Z,31.92
2022-12-20T01:21:04.606Z,30.30
2022-12-20T01:22:07.493Z,29.13
2022-12-20T01:23:09.457Z,29.40
2022-12-20T01:24:12.928Z,27.38
2022-12-20T01:25:15.132Z,29.30
2022-12-20T01:26:20.163Z,27.10
2022-12-20T01:27:22.708Z,28.52
2022-12-20T01:28:25.793Z,29.45
2022-12-20T01:29:28.834Z,32.97
2022-12-20T01:30:32.458Z,28.67
2022-12-20T01:31:35.649Z,25.60
2022-12-20T01:32:39.899Z,29.10
2022-12-20T01:33:43.143Z,31.70
2022-12-20T01:34:46.067Z,32.80
2022-12-20T01:35:55.969Z,30.63
2022-12-20T01:36:59.217Z,27.42
2022-12-20T01:38:01.189Z,30.08
2022-12-20T01:39:06.132Z,30.92
2022-12-20T01:40:10.376Z,27.50
2022-12-20T01:41:16.270Z,29.73
2022-12-20T01:42:18.478Z,29.77
2022-12-20T01:43:22.927Z,31.70
2022-12-20T01:44:51.393Z,27.17
2022-12-20T01:45:56.133Z,29.08
2022-12-20T01:46:58.189Z,27.83
2022-12-20T01:48:01.621Z,30.02
2022-12-20T01:49:06.652Z,28.95
2022-12-20T01:50:10.458Z,29.95
2022-12-20T01:51:12.409Z,30.38
2022-12-20T01:52:17.422Z,31.15
2022-12-20T01:53:21.589Z,34.80
2022-12-20T01:54:26.707Z,28.02
2022-12-20T01:55:28.988Z,27.58
2022-12-20T01:56:32.109Z,30.48
2022-12-20T01:57:38.228Z,29.58
2022-12-20T01:58:41.489Z,29.40
2022-12-20T01:59:45.032Z,29.35
2022-12-20T02:00:48.302Z,27.85
2022-12-20T02:01:51.841Z,27.05
2022-12-20T02:02:56.145Z,34.15
2022-12-20T02:03:58.490Z,28.33
2022-12-20T02:05:01.541Z,25.08
2022-12-20T02:06:18.095Z,25.48
2022-12-20T02:07:23.188Z,26.70
2022-12-20T02:08:25.294Z,29.10
2022-12-20T02:09:28.540Z,28.65
2022-12-20T02:10:38.207Z,27.77
2022-12-20T02:11:49.088Z,24.63
2022-12-20T02:12:57.605Z,27.05
2022-12-20T02:14:04.941Z,27.58
2022-12-20T02:15:25.269Z,30.30
2022-12-20T02:16:30.180Z,29.15
2022-12-20T02:17:43.954Z,30.15
2022-12-20T02:18:49.888Z,30.92
2022-12-20T02:20:19.231Z,29.92
2022-12-20T02:21:28.886Z,38.60
2022-12-20T02:22:44.826Z,35.25
2022-12-20T02:24:26.429Z,32.08
2022-12-20T02:25:45.919Z,28.70
2022-12-20T02:27:19.485Z,26.25
2022-12-20T02:28:40.267Z,29.23
2022-12-20T02:29:59.065Z,29.80
2022-12-20T02:31:06.431Z,29.42
2022-12-20T02:32:10.589Z,28.00
2022-12-20T02:33:14.635Z,30.30
2022-12-20T02:34:17.133Z,27.38
2022-12-20T02:35:23.506Z,29.38
2022-12-20T02:36:26.366Z,29.30
2022-12-20T02:37:29.973Z,31.73
2022-12-20T02:38:34.509Z,29.40
2022-12-20T02:39:39.333Z,31.13
2022-12-20T02:40:42.705Z,30.88
2022-12-20T02:41:49.545Z,26.90
2022-12-20T02:42:53.896Z,29.10
2022-12-20T02:44:20.662Z,29.27
2022-12-20T02:45:28.042Z,28.83
2022-12-20T02:46:31.557Z,30.35
2022-12-20T02:47:36.825Z,27.23
2022-12-20T02:48:39.165Z,29.98
2022-12-20T02:50:01.309Z,31.65
2022-12-20T02:51:04.471Z,27.45
2022-12-20T02:52:08.512Z,27.60
2022-12-20T02:53:10.849Z,29.42
2022-12-20T02:54:15.146Z,28.55
2022-12-20T02:55:17.286Z,29.52
2022-12-20T02:56:24.872Z,27.85
2022-12-20T02:57:29.751Z,33.25
2022-12-20T02:58:36.142Z,28.30
2022-12-20T02:59:42.984Z,29.75
2022-12-20T03:00:48.714Z,28.90
2022-12-20T03:01:52.648Z,32.47
2022-12-20T03:03:13.976Z,35.35
2022-12-20T03:04:18.007Z,30.42
2022-12-20T03:05:22.177Z,29.80
2022-12-20T03:06:25.567Z,28.30
2022-12-20T03:07:29.485Z,30.92
2022-12-20T03:08:33.922Z,28.80
2022-12-20T03:09:37.917Z,28.40
2022-12-20T03:10:41.168Z,31.15
2022-12-20T03:11:44.150Z,25.80
2022-12-20T03:12:46.377Z,27.23
2022-12-20T03:13:49.489Z,27.52
2022-12-20T03:14:51.424Z,29.65
2022-12-20T03:15:55.754Z,30.02
2022-12-20T03:16:58.767Z,27.45
2022-12-20T03:18:01.772Z,29.33
2022-12-20T03:19:03.964Z,28.70
2022-12-20T03:20:08.918Z,27.58
2022-12-20T03:21:12.234Z,28.63
2022-12-20T03:22:14.281Z,29.13
2022-12-20T03:23:17.442Z,31.35
2022-12-20T03:24:19.564Z,32.13
2022-12-20T03:25:24.301Z,30.98
2022-12-20T03:26:26.316Z,29.27
2022-12-20T03:27:33.529Z,32.10
2022-12-20T03:28:37.205Z,30.60
2022-12-20T03:29:41.426Z,29.58
2022-12-20T03:30:43.432Z,30.58
2022-12-20T03:31:48.181Z,30.77
2022-12-20T03:32:50.163Z,28.42
2022-12-20T03:33:53.084Z,29.90
2022-12-20T03:34:57.841Z,32.53
2022-12-20T03:36:07.425Z,31.00
2022-12-20T03:37:09.721Z,33.80
2022-12-20T03:38:13.094Z,33.67
2022-12-20T03:39:15.089Z,31.55
2022-12-20T03:40:18.202Z,32.00
2022-12-20T03:41:22.311Z,28.77
2022-12-20T03:42:25.441Z,31.63
2022-12-20T03:43:28.785Z,32.22
2022-12-20T03:44:32.133Z,33.83
2022-12-20T03:45:34.321Z,33.50
2022-12-20T03:46:37.279Z,31.77
2022-12-20T03:47:41.680Z,31.40
2022-12-20T03:48:45.406Z,30.65
2022-12-20T03:49:47.921Z,35.58
2022-12-20T03:50:51.026Z,32.67
2022-12-20T03:51:53.284Z,33.60
2022-12-20T03:52:56.286Z,33.08
2022-12-20T03:53:58.547Z,34.50
2022-12-20T03:55:14.562Z,31.33
2022-12-20T03:56:19.698Z,31.13
2022-12-20T03:57:22.837Z,29.02
2022-12-20T03:58:27.100Z,29.20
2022-12-20T03:59:30.483Z,32.15
2022-12-20T04:00:33.799Z,33.40
2022-12-20T04:01:56.684Z,29.50
2022-12-20T04:03:00.309Z,30.90
2022-12-20T04:04:04.608Z,30.15
2022-12-20T04:05:07.580Z,34.10
2022-12-20T04:06:13.443Z,32.13
2022-12-20T04:07:15.622Z,30.98
2022-12-20T04:08:22.184Z,36.97
2022-12-20T04:09:25.853Z,34.45
2022-12-20T04:10:54.524Z,30.08
2022-12-20T04:11:57.441Z,29.13
2022-12-20T04:13:00.950Z,29.48
2022-12-20T04:14:02.862Z,30.30
2022-12-20T04:15:06.982Z,30.70
2022-12-20T04:16:10.800Z,29.75
2022-12-20T04:17:13.861Z,34.13
2022-12-20T04:18:18.029Z,31.38
2022-12-20T04:19:21.382Z,33.25
2022-12-20T04:20:23.623Z,30.27
2022-12-20T04:21:46.961Z,32.33
2022-12-20T04:23:08.220Z,32.47
2022-12-20T04:24:12.202Z,37.15
2022-12-20T04:25:41.181Z,31.85
2022-12-20T04:26:44.240Z,31.27
2022-12-20T04:27:48.680Z,32.50
2022-12-20T04:28:50.961Z,35.17
2022-12-20T04:29:54.028Z,37.03
2022-12-20T04:30:58.033Z,34.67
2022-12-20T04:32:03.362Z,36.42
2022-12-20T04:33:05.627Z,36.20
2022-12-20T04:34:10.189Z,37.13
2022-12-20T04:35:13.167Z,38.85
2022-12-20T04:36:18.704Z,35.05
2022-12-20T04:37:21.006Z,36.47
2022-12-20T04:38:28.740Z,36.40
2022-12-20T04:39:32.135Z,36.40
2022-12-20T04:40:53.963Z,33.17
2022-12-20T04:41:57.721Z,37.42
2022-12-20T04:42:59.812Z,35.65
2022-12-20T04:44:02.783Z,38.42
2022-12-20T04:45:11.805Z,40.50
2022-12-20T04:46:15.307Z,37.20
2022-12-20T04:47:17.456Z,35.50
2022-12-20T04:48:55.315Z,40.17
2022-12-20T04:49:45.344Z,35.90
2022-12-20T04:50:48.324Z,37.85
2022-12-20T04:51:51.549Z,38.00
2022-12-20T04:53:12.599Z,37.10
2022-12-20T04:54:14.717Z,35.22
2022-12-20T04:55:26.435Z,40.17
2022-12-20T04:56:30.529Z,41.72
2022-12-20T04:57:38.860Z,61.47
2022-12-20T04:58:42.901Z,50.22
2022-12-20T04:59:45.482Z,44.58
2022-12-20T05:00:52.220Z,42.58
2022-12-20T05:01:59.869Z,41.38
2022-12-20T05:03:22.711Z,38.92
2022-12-20T05:04:29.038Z,43.55
2022-12-20T05:05:35.439Z,39.65
2022-12-20T05:06:38.343Z,41.95
2022-12-20T05:07:41.047Z,40.97
2022-12-20T05:08:44.198Z,37.17
2022-12-20T05:09:46.527Z,37.65
2022-12-20T05:10:49.556Z,42.83
2022-12-20T05:11:52.738Z,39.63
2022-12-20T05:13:41.960Z,33.60
2022-12-20T05:15:02.673Z,32.90
2022-12-20T05:16:06.313Z,37.35
2022-12-20T05:17:09.782Z,35.55
2022-12-20T05:18:13.076Z,35.25
2022-12-20T05:19:24.648Z,35.17
2022-12-20T05:20:27.021Z,36.22
2022-12-20T05:21:49.647Z,39.15
2022-12-20T05:23:09.560Z,35.72
2022-12-20T05:24:29.863Z,36.40
2022-12-20T05:25:57.359Z,35.70
2022-12-20T05:27:00.362Z,34.00
2022-12-20T05:28:02.770Z,34.53
2022-12-20T05:29:09.838Z,35.47
2022-12-20T05:30:12.675Z,38.78
2022-12-20T05:31:16.756Z,32.33
2022-12-20T05:32:18.834Z,35.42
2022-12-20T05:33:21.698Z,32.60
2022-12-20T05:34:24.355Z,36.95
2022-12-20T05:35:29.892Z,37.22
2022-12-20T05:36:40.797Z,35.47
2022-12-20T05:37:43.595Z,39.33
2022-12-20T05:38:53.031Z,36.17
2022-12-20T05:39:57.635Z,37.80
2022-12-20T05:41:00.784Z,37.17
2022-12-20T05:42:02.877Z,38.58
2022-12-20T05:43:06.215Z,32.67
2022-12-20T05:44:17.675Z,42.95
2022-12-20T05:45:23.076Z,54.75
2022-12-20T05:46:32.497Z,49.72
2022-12-20T05:47:39.095Z,34.28
2022-12-20T05:48:46.315Z,41.97
2022-12-20T05:49:48.807Z,42.97
2022-12-20T05:50:51.782Z,36.10
2022-12-20T05:52:08.959Z,40.22
2022-12-20T05:53:14.140Z,39.50
2022-12-20T05:54:22.427Z,43.38
2022-12-20T05:55:32.077Z,43.25
2022-12-20T05:56:35.933Z,35.20
2022-12-20T05:57:38.401Z,36.13
2022-12-20T05:58:41.626Z,44.22
2022-12-20T05:59:44.443Z,45.97
2022-12-20T06:01:01.697Z,36.95
2022-12-20T06:02:04.029Z,39.65
2022-12-20T06:03:08.238Z,39.55
2022-12-20T06:04:11.817Z,45.17
2022-12-20T06:05:15.125Z,42.25
2022-12-20T06:06:18.337Z,44.33
2022-12-20T06:07:23.620Z,44.38
2022-12-20T06:08:31.972Z,40.25
2022-12-20T06:09:37.084Z,40.50
2022-12-20T06:10:43.655Z,42.83
2022-12-20T06:11:45.796Z,41.00
2022-12-20T06:12:50.510Z,42.25
2022-12-20T06:13:53.572Z,39.80
2022-12-20T06:14:57.281Z,37.90
2022-12-20T06:16:01.562Z,43.30
2022-12-20T06:17:04.573Z,41.65
2022-12-20T06:18:08.604Z,52.50
2022-12-20T06:19:16.021Z,53.65
2022-12-20T06:20:22.815Z,55.10
2022-12-20T06:21:28.718Z,57.33
2022-12-20T06:22:34.064Z,51.17
2022-12-20T06:23:37.268Z,65.25
2022-12-20T06:24:48.307Z,47.50
2022-12-20T06:25:53.189Z,38.80
2022-12-20T06:26:56.641Z,42.40
2022-12-20T06:28:01.751Z,42.42
2022-12-20T06:29:07.145Z,43.60
2022-12-20T06:30:18.646Z,40.58
2022-12-20T06:31:39.625Z,36.90
2022-12-20T06:32:43.339Z,46.08
2022-12-20T06:33:46.352Z,42.80
2022-12-20T06:34:52.674Z,38.33
2022-12-20T06:35:55.875Z,44.00
2022-12-20T06:36:58.838Z,39.33
2022-12-20T06:38:06.740Z,37.17
2022-12-20T06:39:10.753Z,38.65
2022-12-20T06:40:22.552Z,39.13
2022-12-20T06:41:24.668Z,39.08
2022-12-20T06:42:29.032Z,38.47
2022-12-20T06:43:32.228Z,45.42
2022-12-20T06:44:34.672Z,39.83
2022-12-20T06:45:41.847Z,35.08
2022-12-20T06:46:46.130Z,40.72
2022-12-20T06:47:49.039Z,36.40
2022-12-20T06:48:52.971Z,41.60
2022-12-20T06:49:55.014Z,37.88
2022-12-20T06:50:59.332Z,38.88
2022-12-20T06:52:03.373Z,47.85
2022-12-20T06:53:19.071Z,40.97
2022-12-20T06:54:21.110Z,38.78
2022-12-20T06:55:24.390Z,38.88
2022-12-20T06:56:43.117Z,42.08
2022-12-20T06:57:48.171Z,44.83
2022-12-20T06:58:51.046Z,41.83
2022-12-20T06:59:53.924Z,35.72
2022-12-20T07:00:55.938Z,39.63
2022-12-20T07:01:59.352Z,37.88
2022-12-20T07:03:02.882Z,39.83
2022-12-20T07:04:05.388Z,39.03
2022-12-20T07:05:08.908Z,40.17
2022-12-20T07:06:10.758Z,40.00
2022-12-20T07:07:14.123Z,41.92
2022-12-20T07:08:16.221Z,40.33
2022-12-20T07:09:20.501Z,40.03
2022-12-20T07:10:22.408Z,39.90
2022-12-20T07:11:25.389Z,41.28
2022-12-20T07:12:29.208Z,39.15
2022-12-20T07:13:31.103Z,41.40
2022-12-20T07:14:34.151Z,42.35
2022-12-20T07:15:59.247Z,39.90
2022-12-20T07:17:01.237Z,40.22
2022-12-20T07:18:04.935Z,45.95
2022-12-20T07:19:06.883Z,44.88
2022-12-20T07:20:13.673Z,43.80
2022-12-20T07:21:36.050Z,39.97
2022-12-20T07:22:39.007Z,40.22
2022-12-20T07:24:01.012Z,42.58
2022-12-20T07:25:05.411Z,44.17
2022-12-20T07:26:08.366Z,45.25
2022-12-20T07:27:11.187Z,47.47
2022-12-20T07:28:14.229Z,43.92
2022-12-20T07:29:17.234Z,42.08
2022-12-20T07:30:21.089Z,48.33
2022-12-20T07:31:23.092Z,42.03
2022-12-20T07:32:26.139Z,40.70
2022-12-20T07:33:28.290Z,42.03
2022-12-20T07:34:31.329Z,44.30
2022-12-20T07:35:33.207Z,40.47
2022-12-20T07:36:36.147Z,46.85
2022-12-20T07:37:40.261Z,45.42
2022-12-20T07:38:42.517Z,42.53
2022-12-20T07:39:45.324Z,41.85
2022-12-20T07:40:48.866Z,46.47
2022-12-20T07:41:55.014Z,44.42
2022-12-20T07:42:57.851Z,46.28
2022-12-20T07:44:00.823Z,45.03
2022-12-20T07:45:03.946Z,42.42
2022-12-20T07:46:08.031Z,44.40
2022-12-20T07:47:11.014Z,46.22
2022-12-20T07:48:16.437Z,47.55
2022-12-20T07:49:24.411Z,43.58
2022-12-20T07:50:27.094Z,43.65
2022-12-20T07:51:35.714Z,47.97
2022-12-20T07:52:37.905Z,43.55
2022-12-20T07:53:43.612Z,42.72
2022-12-20T07:54:49.838Z,45.38
2022-12-20T07:55:53.925Z,46.33
2022-12-20T07:57:00.526Z,41.42
2022-12-20T07:58:06.324Z,41.83
2022-12-20T07:59:09.686Z,47.08
2022-12-20T08:00:14.049Z,39.20
2022-12-20T08:01:17.280Z,41.13
2022-12-20T08:02:23.933Z,41.13
2022-12-20T08:03:32.000Z,40.17
2022-12-20T08:04:34.317Z,41.53
2022-12-20T08:05:38.982Z,38.15
2022-12-20T08:06:41.112Z,37.30
2022-12-20T08:07:44.950Z,36.13
2022-12-20T08:08:50.768Z,36.95
2022-12-20T08:09:54.085Z,33.75
2022-12-20T08:10:57.406Z,38.25
2022-12-20T08:12:00.738Z,38.22
2022-12-20T08:13:04.667Z,37.22
2022-12-20T08:14:08.185Z,36.92
2022-12-20T08:15:11.827Z,39.03
2022-12-20T08:16:15.242Z,36.65
2022-12-20T08:17:18.481Z,35.55
2022-12-20T08:18:21.487Z,33.85
2022-12-20T08:19:30.206Z,36.65
2022-12-20T08:20:34.221Z,39.10
2022-12-20T08:21:37.086Z,40.45
2022-12-20T08:22:40.429Z,43.67
2022-12-20T08:23:43.561Z,38.55
2022-12-20T08:24:46.545Z,42.17
2022-12-20T08:25:50.243Z,41.13
2022-12-20T08:26:54.844Z,42.15
2022-12-20T08:27:57.858Z,38.90
2022-12-20T08:29:00.843Z,38.90
2022-12-20T08:30:03.909Z,37.10
2022-12-20T08:31:08.599Z,40.00
2022-12-20T08:32:12.930Z,41.50
2022-12-20T08:33:15.871Z,35.55
2022-12-20T08:34:19.021Z,32.25
2022-12-20T08:35:22.586Z,38.28
2022-12-20T08:36:25.542Z,33.80
2022-12-20T08:37:28.527Z,35.97
2022-12-20T08:38:32.039Z,35.65
2022-12-20T08:39:34.506Z,36.17
2022-12-20T08:40:37.422Z,33.83
2022-12-20T08:41:40.502Z,35.20
2022-12-20T08:42:44.760Z,34.33
2022-12-20T08:43:47.873Z,30.10
2022-12-20T08:44:50.955Z,33.90
2022-12-20T08:45:54.466Z,35.92
2022-12-20T08:46:57.442Z,36.05
2022-12-20T08:48:00.389Z,34.67
2022-12-20T08:49:02.562Z,32.25
2022-12-20T08:50:06.863Z,31.05
2022-12-20T08:51:11.843Z,36.10
2022-12-20T08:52:14.882Z,33.17
2022-12-20T08:53:17.143Z,32.75
2022-12-20T08:54:39.113Z,30.30
2022-12-20T08:55:42.187Z,34.83
2022-12-20T08:56:45.360Z,36.03
2022-12-20T08:57:49.704Z,32.67
2022-12-20T08:58:51.840Z,34.00
2022-12-20T08:59:54.805Z,34.60
2022-12-20T09:01:05.942Z,33.58
2022-12-20T09:02:09.924Z,32.72
2022-12-20T09:03:14.055Z,32.20
2022-12-20T09:04:17.454Z,37.53
2022-12-20T09:05:19.565Z,35.05
2022-12-20T09:06:23.947Z,29.73
2022-12-20T09:07:27.306Z,32.97
2022-12-20T09:08:29.645Z,31.67
2022-12-20T09:09:32.542Z,31.70
2022-12-20T09:10:34.723Z,28.15
2022-12-20T09:11:38.078Z,31.88
2022-12-20T09:12:41.166Z,32.00
2022-12-20T09:13:46.860Z,31.40
2022-12-20T09:14:48.964Z,31.05
2022-12-20T09:15:51.980Z,28.83
2022-12-20T09:16:54.927Z,26.15
2022-12-20T09:17:56.943Z,29.73
2022-12-20T09:19:05.475Z,29.98
2022-12-20T09:20:08.566Z,31.77
2022-12-20T09:21:12.861Z,28.95
2022-12-20T09:22:18.284Z,29.92
2022-12-20T09:23:20.260Z,34.00
2022-12-20T09:24:41.706Z,29.10
2022-12-20T09:25:48.846Z,32.05
2022-12-20T09:26:55.363Z,28.65
2022-12-20T09:27:58.281Z,27.67
2022-12-20T09:29:03.043Z,29.50
2022-12-20T09:30:05.941Z,30.58
2022-12-20T09:31:12.143Z,28.73
2022-12-20T09:32:15.500Z,29.02
2022-12-20T09:33:18.522Z,27.13
2022-12-20T09:34:20.580Z,31.52
2022-12-20T09:35:24.047Z,28.92
2022-12-20T09:36:28.106Z,27.65
2022-12-20T09:37:31.681Z,28.83
2022-12-20T09:38:33.894Z,28.75
2022-12-20T09:39:37.022Z,32.45
2022-12-20T09:40:39.181Z,33.63
2022-12-20T09:41:44.046Z,32.65
2022-12-20T09:42:47.821Z,25.38
2022-12-20T09:43:49.999Z,30.02
2022-12-20T09:44:57.501Z,26.88
2022-12-20T09:46:02.193Z,31.25
2022-12-20T09:47:10.423Z,27.17
2022-12-20T09:48:19.140Z,28.50
2022-12-20T09:49:23.482Z,27.20
2022-12-20T09:50:39.200Z,28.38
2022-12-20T09:52:14.219Z,29.00
2022-12-20T09:53:25.958Z,30.27
2022-12-20T09:54:36.642Z,29.05
2022-12-20T09:55:43.468Z,32.60
2022-12-20T09:56:52.264Z,34.03
2022-12-20T09:58:05.267Z,29.70
2022-12-20T09:59:12.964Z,27.13
2022-12-20T10:00:19.352Z,28.27
2022-12-20T10:01:25.411Z,30.20
2022-12-20T10:03:54.990Z,27.98
2022-12-20T10:04:58.335Z,29.75
2022-12-20T10:06:07.747Z,30.00
2022-12-20T10:07:23.600Z,30.45
2022-12-20T10:08:41.295Z,26.42
2022-12-20T10:09:53.749Z,27.15
2022-12-20T10:10:56.860Z,26.52
2022-12-20T10:12:05.518Z,28.45
2022-12-20T10:13:20.656Z,27.20
2022-12-20T10:14:35.076Z,28.10
2022-12-20T10:15:43.688Z,28.55
2022-12-20T10:16:47.744Z,30.50
2022-12-20T10:18:16.162Z,29.20
2022-12-20T10:19:34.224Z,30.35
2022-12-20T10:20:47.118Z,28.42
2022-12-20T10:21:54.760Z,28.63
2022-12-20T10:23:01.852Z,29.08
2022-12-20T10:24:05.591Z,29.63
2022-12-20T10:25:16.728Z,30.77
2022-12-20T10:26:19.711Z,29.50
2022-12-20T10:27:23.051Z,28.80
2022-12-20T10:28:28.204Z,28.08
2022-12-20T10:29:31.479Z,25.42
2022-12-20T10:30:36.084Z,25.10
2022-12-20T10:31:40.870Z,26.98
2022-12-20T10:32:46.937Z,25.73
2022-12-20T10:33:50.043Z,25.20
2022-12-20T10:34:56.783Z,24.63
2022-12-20T10:36:25.807Z,26.85
2022-12-20T10:37:28.789Z,27.50
2022-12-20T10:38:45.062Z,27.85
2022-12-20T10:39:48.638Z,24.25
2022-12-20T10:42:27.417Z,24.15
2022-12-20T10:43:44.732Z,26.00
2022-12-20T10:44:46.740Z,23.65
2022-12-20T10:45:57.826Z,25.27
2022-12-20T10:47:02.362Z,30.17
2022-12-20T10:48:06.162Z,27.88
2022-12-20T10:49:31.141Z,29.77
2022-12-20T10:50:33.850Z,26.95
2022-12-20T10:51:36.792Z,28.30
2022-12-20T10:52:38.822Z,26.13
2022-12-20T10:53:52.579Z,25.67
2022-12-20T10:54:54.496Z,28.48
2022-12-20T10:56:13.780Z,26.98
2022-12-20T10:57:20.935Z,28.85
2022-12-20T10:58:33.660Z,24.00
2022-12-20T10:59:38.237Z,26.67
2022-12-20T11:00:40.762Z,28.20
2022-12-20T11:01:46.034Z,23.67
2022-12-20T11:03:41.905Z,25.30
2022-12-20T11:04:58.797Z,27.83
2022-12-20T11:06:04.493Z,26.58
2022-12-20T11:07:24.974Z,26.27
2022-12-20T11:08:39.085Z,26.65
2022-12-20T11:09:53.606Z,27.55
2022-12-20T11:11:13.334Z,27.05
2022-12-20T11:12:17.733Z,26.55
2022-12-20T11:13:22.682Z,25.05
2022-12-20T11:14:25.722Z,27.23
2022-12-20T11:15:34.700Z,29.63
2022-12-20T11:16:39.573Z,26.45
2022-12-20T11:17:46.610Z,26.25
2022-12-20T11:18:52.517Z,30.98
2022-12-20T11:20:32.046Z,29.77
2022-12-20T11:21:40.402Z,30.67
2022-12-20T11:22:52.553Z,27.33
2022-12-20T11:24:00.070Z,37.70
2022-12-20T11:25:19.044Z,55.17
2022-12-20T11:26:30.823Z,32.08
2022-12-20T11:27:36.340Z,30.35
2022-12-20T11:28:49.518Z,30.23
2022-12-20T11:30:07.360Z,29.95
2022-12-20T11:31:17.665Z,28.67
2022-12-20T11:32:30.662Z,28.35
2022-12-20T11:33:49.628Z,25.58
2022-12-20T11:35:01.189Z,28.88
2022-12-20T11:36:08.341Z,29.58
2022-12-20T11:37:19.055Z,26.95
2022-12-20T11:38:31.984Z,28.58
2022-12-20T11:39:40.160Z,31.08
2022-12-20T11:40:45.543Z,27.98
2022-12-20T11:41:55.765Z,27.73
2022-12-20T11:43:16.713Z,24.52
2022-12-20T11:44:27.086Z,26.83
2022-12-20T11:45:32.103Z,34.42
2022-12-20T11:46:49.733Z,33.85
2022-12-20T11:48:22.776Z,30.83
2022-12-20T11:49:51.737Z,34.13
2022-12-20T11:51:03.064Z,43.47
2022-12-20T11:52:11.582Z,38.92
2022-12-20T11:53:19.857Z,35.45
2022-12-20T11:54:27.138Z,32.53
2022-12-20T11:55:33.680Z,33.20
2022-12-20T11:56:43.839Z,45.35
2022-12-20T11:58:17.684Z,39.33
2022-12-20T11:59:21.799Z,46.28
2022-12-20T12:00:24.323Z,37.80
2022-12-20T12:01:31.386Z,33.92
2022-12-20T12:02:36.969Z,30.58
2022-12-20T12:03:40.600Z,31.13
2022-12-20T12:04:45.495Z,27.95
2022-12-20T12:05:49.521Z,29.48
2022-12-20T12:07:04.592Z,27.15
2022-12-20T16:20:57.966Z,130.55
2022-12-20T16:22:01.318Z,121.68
2022-12-20T16:23:05.045Z,135.77
2022-12-20T16:24:12.592Z,79.35
2022-12-20T16:25:25.321Z,90.30
2022-12-20T16:26:28.313Z,56.35
2022-12-20T16:27:30.222Z,54.72
2022-12-20T16:28:33.202Z,62.83
2022-12-20T16:29:36.067Z,57.90
2022-12-20T16:30:39.580Z,59.95
2022-12-20T16:31:42.791Z,70.95
2022-12-20T16:32:45.699Z,63.55
2022-12-20T16:33:48.616Z,57.30
2022-12-20T16:34:51.608Z,51.90
2022-12-20T16:35:54.541Z,50.15
2022-12-20T16:36:57.795Z,54.45
2022-12-20T16:38:01.491Z,50.47
2022-12-20T16:39:03.513Z,57.17
2022-12-20T16:40:07.864Z,52.35
2022-12-20T16:41:13.837Z,49.22
2022-12-20T16:42:17.396Z,56.17
2022-12-20T16:43:20.317Z,54.88
2022-12-20T16:44:23.028Z,62.50
2022-12-20T16:45:27.448Z,75.40
2022-12-20T16:46:32.317Z,82.68
2022-12-20T16:47:34.465Z,86.13
2022-12-20T16:48:37.296Z,85.05
2022-12-20T16:49:40.306Z,83.03
2022-12-20T16:50:45.404Z,79.57
2022-12-20T16:51:49.689Z,74.30
2022-12-20T16:52:54.043Z,66.68
2022-12-20T16:55:23.363Z,66.45
2022-12-20T16:56:26.415Z,68.05
2022-12-20T16:57:28.497Z,68.50
2022-12-20T16:58:59.938Z,61.25
2022-12-20T16:59:54.478Z,70.15
2022-12-20T17:00:57.545Z,66.50
2022-12-20T17:01:59.639Z,60.92
2022-12-20T17:03:03.056Z,72.25
2022-12-20T17:04:06.308Z,66.53
2022-12-20T17:05:19.956Z,67.15
2022-12-20T17:06:22.838Z,81.80
2022-12-20T17:07:25.298Z,70.50
2022-12-20T17:09:51.796Z,48.15
2022-12-20T17:10:55.137Z,50.30
2022-12-20T17:11:58.888Z,54.88
2022-12-20T17:13:01.857Z,58.20
2022-12-20T17:14:10.573Z,62.15
2022-12-20T17:15:21.889Z,63.92
2022-12-20T17:16:24.979Z,55.65
2022-12-20T17:17:28.040Z,54.90
2022-12-20T17:18:31.259Z,55.72
2022-12-20T17:19:33.195Z,58.25
2022-12-20T17:20:37.318Z,58.53
2022-12-20T17:23:03.836Z,63.50
2022-12-20T17:24:15.474Z,59.90
2022-12-20T17:25:26.395Z,66.40
2022-12-20T17:26:30.431Z,79.00
2022-12-20T17:27:32.735Z,67.95
2022-12-20T17:28:35.694Z,60.78
2022-12-20T17:29:37.692Z,65.90
2022-12-20T17:30:40.695Z,60.90
2022-12-20T17:31:44.290Z,95.18
2022-12-20T17:32:47.453Z,103.97
2022-12-20T17:33:49.684Z,113.43
2022-12-20T17:34:52.821Z,99.65
2022-12-20T17:35:55.916Z,116.35
2022-12-20T17:36:59.554Z,62.97
2022-12-20T17:38:03.120Z,53.97
2022-12-20T17:39:05.075Z,52.80
2022-12-20T17:40:11.099Z,54.83
2022-12-20T17:41:22.959Z,59.42
2022-12-20T17:42:31.219Z,58.72
2022-12-20T17:43:34.911Z,75.40
2022-12-20T17:44:37.908Z,80.68
2022-12-20T17:45:41.309Z,55.72
2022-12-20T17:46:44.398Z,64.88
2022-12-20T17:47:46.481Z,109.40
2022-12-20T17:48:49.917Z,142.40
2022-12-20T17:49:52.153Z,71.75
2022-12-20T17:50:55.116Z,119.50
2022-12-20T17:51:57.139Z,118.53
2022-12-20T17:53:00.154Z,71.15
2022-12-20T17:54:02.404Z,72.38
2022-12-20T17:55:06.137Z,61.63
2022-12-20T17:56:13.851Z,52.00
2022-12-20T17:57:17.216Z,51.05
2022-12-20T17:58:19.237Z,51.17
2022-12-20T17:59:23.011Z,55.15
2022-12-20T18:00:34.581Z,52.28
2022-12-20T18:01:43.742Z,52.47
2022-12-20T18:02:47.757Z,55.92
2022-12-20T18:04:07.500Z,49.38
2022-12-20T18:05:11.469Z,53.50
2022-12-20T18:06:14.457Z,56.00
2022-12-20T18:07:16.536Z,55.22
2022-12-20T18:08:19.432Z,56.00
2022-12-20T18:09:21.870Z,53.55
2022-12-20T18:10:25.293Z,58.20
2022-12-20T18:11:29.196Z,58.13
2022-12-20T18:12:37.221Z,62.08
2022-12-20T18:13:43.587Z,61.05
2022-12-20T18:14:49.136Z,61.70
2022-12-20T18:15:52.135Z,59.35
2022-12-20T18:16:55.559Z,58.28
2022-12-20T18:17:58.636Z,65.75
2022-12-20T18:19:01.796Z,58.05
2022-12-20T18:20:05.536Z,65.93
2022-12-20T18:21:10.374Z,76.32
2022-12-20T18:22:12.948Z,73.10
2022-12-20T18:23:16.452Z,66.18
2022-12-20T18:24:19.936Z,70.55
2022-12-20T18:25:22.849Z,67.38
2022-12-20T18:26:26.413Z,81.30
2022-12-20T18:27:31.290Z,75.70
2022-12-20T18:28:34.256Z,71.32
2022-12-20T18:29:37.269Z,67.82
2022-12-20T18:30:40.202Z,71.15